Wetterdaten: Woche 11.11.19 - 17.11.19 (KW46)
Datum Zeit Temp. Aussen Temp. o. S. Temp +5cm Feuchte Auss Luftdruck Regen Sonnenschein Regendauer Solar Windben Empfang
11.11.2019 00:00 2,4 C 1,7 C 1,7 C 98 % 1014,9 hPa 0,0 l/m 0,00 h 0,00 h 0 W/m 17,4 km/h (3 Bft) 96,89 %
11.11.2019 01:00 2,4 C 1,9 C 1,7 C 99 % 1014,8 hPa 0,0 l/m 0,00 h 0,00 h 0 W/m 18,0 km/h (3 Bft) 96,16 %
11.11.2019 02:00 2,5 C 2,1 C 1,7 C 99 % 1014,2 hPa 0,0 l/m 0,00 h 0,00 h 0 W/m 19,7 km/h (3 Bft) 99,00 %
11.11.2019 03:00 2,3 C 1,7 C 1,2 C 99 % 1013,2 hPa 0,0 l/m 0,00 h 0,00 h 0 W/m 16,4 km/h (3 Bft) 97,87 %
11.11.2019 04:00 2,3 C 2,2 C 1,7 C 99 % 1012,8 hPa 0,0 l/m 0,00 h 0,00 h 0 W/m 20,2 km/h (4 Bft) 95,79 %
11.11.2019 05:00 2,7 C 2,6 C 2,1 C 99 % 1011,8 hPa 0,0 l/m 0,00 h 0,00 h 0 W/m 21,3 km/h (4 Bft) 95,10 %
11.11.2019 06:00 2,9 C 2,8 C 2,2 C 98 % 1010,5 hPa 0,0 l/m 0,00 h 0,00 h 0 W/m 22,8 km/h (4 Bft) 98,27 %
11.11.2019 07:00 3,4 C 3,1 C 2,6 C 97 % 1009,7 hPa 0,0 l/m 0,00 h 0,00 h 6 W/m 25,3 km/h (4 Bft) 96,56 %
11.11.2019 08:00 3,8 C 3,3 C 2,8 C 96 % 1009,2 hPa 0,0 l/m 0,00 h 0,00 h 20 W/m 24,1 km/h (4 Bft) 94,38 %
11.11.2019 09:00 4,1 C 3,9 C 3,3 C 95 % 1008,7 hPa 0,0 l/m 0,00 h 0,00 h 45 W/m 26,2 km/h (4 Bft) 97,65 %
11.11.2019 10:00 4,5 C 4,8 C 4,0 C 93 % 1007,7 hPa 0,0 l/m 0,20 h 0,00 h 117 W/m 28,3 km/h (4 Bft) 98,58 %
11.11.2019 11:00 5,3 C 5,6 C 4,6 C 91 % 1006,8 hPa 0,0 l/m 0,07 h 0,00 h 107 W/m 26,1 km/h (4 Bft) 95,65 %
11.11.2019 12:00 6,4 C 6,9 C 6,0 C 89 % 1005,5 hPa 0,0 l/m 0,10 h 0,00 h 152 W/m 25,6 km/h (4 Bft) 98,38 %
11.11.2019 13:00 7,3 C 7,3 C 6,7 C 86 % 1004,4 hPa 0,0 l/m 0,00 h 0,00 h 113 W/m 28,6 km/h (4 Bft) 97,94 %
11.11.2019 14:00 7,3 C 7,1 C 6,2 C 84 % 1003,1 hPa 0,0 l/m 0,00 h 0,00 h 90 W/m 32,3 km/h (5 Bft) 94,52 %
11.11.2019 15:00 7,1 C 6,0 C 5,5 C 85 % 1002,3 hPa 0,0 l/m 0,00 h 0,50 h 21 W/m 30,9 km/h (5 Bft) 96,25 %
11.11.2019 16:00 6,6 C 4,5 C 4,3 C 90 % 1002,0 hPa 1,6 l/m 0,00 h 1,00 h 6 W/m 21,6 km/h (4 Bft) 97,29 %
11.11.2019 17:00 6,2 C 4,9 C 4,4 C 94 % 1002,3 hPa 1,6 l/m 0,00 h 1,00 h 0 W/m 15,9 km/h (3 Bft) 97,22 %
11.11.2019 18:00 6,0 C 4,8 C 4,4 C 96 % 1002,3 hPa 0,2 l/m 0,00 h 0,53 h 0 W/m 17,9 km/h (3 Bft) 96,11 %
11.11.2019 19:00 5,7 C 4,4 C 3,9 C 96 % 1002,5 hPa 0,0 l/m 0,00 h 0,00 h 0 W/m 17,1 km/h (3 Bft) 96,44 %
11.11.2019 20:00 5,6 C 4,4 C 3,9 C 96 % 1002,9 hPa 0,0 l/m 0,00 h 0,00 h 0 W/m 18,3 km/h (3 Bft) 97,53 %
11.11.2019 21:00 5,6 C 4,8 C 3,9 C 96 % 1003,2 hPa 0,2 l/m 0,00 h 0,17 h 0 W/m 17,7 km/h (3 Bft) 96,15 %
11.11.2019 22:00 5,6 C 4,4 C 3,9 C 96 % 1003,3 hPa 0,8 l/m 0,00 h 0,47 h 0 W/m 10,8 km/h (2 Bft) 95,34 %
11.11.2019 23:00 5,3 C 4,2 C 3,7 C 97 % 1003,5 hPa 0,0 l/m 0,00 h 0,00 h 0 W/m 7,4 km/h (2 Bft) 99,64 %
12.11.2019 00:00 4,6 C 3,3 C 2,9 C 97 % 1003,4 hPa 0,0 l/m 0,00 h 0,00 h 0 W/m 9,4 km/h (2 Bft) 98,00 %
12.11.2019 01:00 4,1 C 3,3 C 2,8 C 97 % 1003,3 hPa 0,0 l/m 0,00 h 0,00 h 0 W/m 14,9 km/h (3 Bft) 94,26 %
12.11.2019 02:00 4,1 C 3,2 C 2,7 C 97 % 1003,4 hPa 0,0 l/m 0,00 h 0,00 h 0 W/m 15,2 km/h (3 Bft) 97,72 %
12.11.2019 03:00 3,7 C 2,8 C 2,2 C 97 % 1003,2 hPa 0,0 l/m 0,00 h 0,00 h 0 W/m 12,5 km/h (3 Bft) 98,56 %
12.11.2019 04:00 3,6 C 2,8 C 2,2 C 97 % 1003,1 hPa 0,0 l/m 0,00 h 0,00 h 0 W/m 15,5 km/h (3 Bft) 97,12 %
12.11.2019 05:00 3,8 C 3,1 C 2,4 C 97 % 1002,9 hPa 0,0 l/m 0,00 h 0,00 h 0 W/m 15,5 km/h (3 Bft) 96,86 %
12.11.2019 06:00 4,4 C 3,4 C 2,8 C 96 % 1002,6 hPa 0,0 l/m 0,00 h 0,17 h 0 W/m 14,0 km/h (3 Bft) 98,16 %
12.11.2019 07:00 4,6 C 3,4 C 2,8 C 95 % 1002,6 hPa 0,6 l/m 0,00 h 0,83 h 0 W/m 9,3 km/h (2 Bft) 95,84 %
12.11.2019 08:00 4,7 C 3,8 C 3,2 C 95 % 1002,4 hPa 0,0 l/m 0,00 h 0,00 h 12 W/m 13,5 km/h (3 Bft) 97,73 %
12.11.2019 09:00 5,0 C 4,1 C 3,3 C 95 % 1002,2 hPa 0,0 l/m 0,00 h 0,27 h 33 W/m 17,9 km/h (3 Bft) 95,63 %
12.11.2019 10:00 5,2 C 3,9 C 3,4 C 94 % 1001,9 hPa 1,2 l/m 0,00 h 1,00 h 57 W/m 14,2 km/h (3 Bft) 98,64 %
12.11.2019 11:00 5,2 C 4,1 C 3,8 C 96 % 1001,7 hPa 0,6 l/m 0,00 h 0,57 h 43 W/m 16,5 km/h (3 Bft) 98,58 %
12.11.2019 12:00 5,4 C 5,0 C 3,9 C 96 % 1001,4 hPa 0,0 l/m 0,00 h 0,00 h 54 W/m 22,0 km/h (4 Bft) 95,01 %
12.11.2019 13:00 5,9 C 5,7 C 4,3 C 93 % 1001,4 hPa 0,0 l/m 0,00 h 0,00 h 63 W/m 18,2 km/h (3 Bft) 99,72 %
12.11.2019 14:00 6,5 C 7,0 C 5,2 C 90 % 1001,2 hPa 0,0 l/m 0,20 h 0,00 h 131 W/m 20,7 km/h (4 Bft) 96,81 %
12.11.2019 15:00 6,6 C 6,3 C 5,4 C 86 % 1001,1 hPa 0,0 l/m 0,20 h 0,00 h 63 W/m 21,4 km/h (4 Bft) 96,10 %
12.11.2019 16:00 6,4 C 5,5 C 4,8 C 85 % 1001,4 hPa 0,0 l/m 0,07 h 0,00 h 20 W/m 16,9 km/h (3 Bft) 97,51 %
12.11.2019 17:00 5,5 C 4,2 C 3,6 C 88 % 1001,7 hPa 0,0 l/m 0,00 h 0,00 h 0 W/m 11,5 km/h (2 Bft) 96,51 %
12.11.2019 18:00 4,6 C 3,6 C 3,2 C 91 % 1001,7 hPa 0,0 l/m 0,00 h 0,00 h 0 W/m 13,7 km/h (3 Bft) 96,16 %
12.11.2019 19:00 4,0 C 2,9 C 2,5 C 92 % 1001,6 hPa 0,0 l/m 0,00 h 0,00 h 0 W/m 18,2 km/h (3 Bft) 97,15 %
12.11.2019 20:00 3,4 C 2,5 C 2,1 C 93 % 1001,3 hPa 0,0 l/m 0,00 h 0,00 h 0 W/m 15,1 km/h (3 Bft) 97,08 %
12.11.2019 21:00 2,8 C 2,0 C 1,5 C 93 % 1001,0 hPa 0,0 l/m 0,00 h 0,00 h 0 W/m 12,9 km/h (3 Bft) 99,36 %
12.11.2019 22:00 2,3 C 1,5 C 1,1 C 93 % 1000,8 hPa 0,0 l/m 0,00 h 0,00 h 0 W/m 15,2 km/h (3 Bft) 93,97 %
12.11.2019 23:00 2,1 C 1,1 C 0,9 C 94 % 1000,5 hPa 0,0 l/m 0,00 h 0,00 h 0 W/m 14,6 km/h (3 Bft) 98,15 %
13.11.2019 00:00 1,6 C 0,8 C 0,6 C 94 % 1000,3 hPa 0,0 l/m 0,00 h 0,00 h 0 W/m 15,6 km/h (3 Bft) 98,16 %
13.11.2019 01:00 2,1 C 1,9 C 1,5 C 95 % 1000,6 hPa 0,0 l/m 0,00 h 0,00 h 0 W/m 21,1 km/h (4 Bft) 97,29 %
13.11.2019 02:00 2,9 C 2,7 C 2,1 C 94 % 1000,7 hPa 0,0 l/m 0,00 h 0,03 h 0 W/m 23,3 km/h (4 Bft) 96,87 %
13.11.2019 03:00 3,5 C 3,0 C 2,4 C 93 % 1000,3 hPa 0,0 l/m 0,00 h 0,07 h 0 W/m 16,8 km/h (3 Bft) 96,23 %
13.11.2019 04:00 3,7 C 2,9 C 2,3 C 92 % 999,5 hPa 0,0 l/m 0,00 h 0,03 h 0 W/m 14,8 km/h (3 Bft) 97,48 %
13.11.2019 05:00 3,9 C 3,7 C 3,1 C 93 % 999,7 hPa 0,0 l/m 0,00 h 0,00 h 0 W/m 15,7 km/h (3 Bft) 95,99 %
13.11.2019 06:00 4,3 C 3,9 C 3,3 C 93 % 999,9 hPa 0,0 l/m 0,00 h 0,00 h 0 W/m 14,8 km/h (3 Bft) 95,95 %
13.11.2019 07:00 4,6 C 4,3 C 3,8 C 93 % 1000,5 hPa 0,0 l/m 0,00 h 0,00 h 4 W/m 13,2 km/h (3 Bft) 99,00 %
13.11.2019 08:00 4,9 C 4,6 C 4,0 C 94 % 1000,7 hPa 0,0 l/m 0,00 h 0,00 h 16 W/m 15,0 km/h (3 Bft) 97,29 %
13.11.2019 09:00 5,6 C 5,5 C 4,8 C 94 % 1001,0 hPa 0,0 l/m 0,00 h 0,03 h 58 W/m 21,0 km/h (4 Bft) 95,51 %
13.11.2019 10:00 6,4 C 6,5 C 5,8 C 94 % 1001,4 hPa 0,0 l/m 0,00 h 0,00 h 90 W/m 19,7 km/h (3 Bft) 99,33 %
13.11.2019 11:00 7,0 C 7,1 C 6,4 C 93 % 1001,5 hPa 0,0 l/m 0,00 h 0,00 h 90 W/m 19,2 km/h (3 Bft) 96,30 %
13.11.2019 12:00 7,6 C 7,9 C 6,8 C 92 % 1001,4 hPa 0,0 l/m 0,07 h 0,00 h 138 W/m 21,1 km/h (4 Bft) 97,02 %
13.11.2019 13:00 7,9 C 7,8 C 6,9 C 92 % 1001,6 hPa 0,0 l/m 0,20 h 0,13 h 129 W/m 17,9 km/h (3 Bft) 98,79 %
13.11.2019 14:00 7,8 C 7,6 C 6,8 C 92 % 1001,6 hPa 0,0 l/m 0,07 h 0,00 h 90 W/m 20,3 km/h (4 Bft) 97,15 %
13.11.2019 15:00 7,5 C 7,1 C 6,5 C 92 % 1001,7 hPa 0,0 l/m 0,00 h 0,00 h 50 W/m 18,8 km/h (3 Bft) 96,65 %
13.11.2019 16:00 7,4 C 6,3 C 5,9 C 93 % 1001,9 hPa 0,0 l/m 0,00 h 0,23 h 16 W/m 19,5 km/h (3 Bft) 97,79 %
13.11.2019 17:00 7,0 C 6,1 C 5,6 C 94 % 1002,3 hPa 0,0 l/m 0,00 h 0,00 h 0 W/m 13,4 km/h (3 Bft) 98,50 %
13.11.2019 18:00 6,6 C 5,4 C 4,9 C 93 % 1002,6 hPa 0,0 l/m 0,00 h 0,00 h 0 W/m 2,0 km/h (1 Bft) 95,95 %
13.11.2019 19:00 6,2 C 5,6 C 5,0 C 93 % 1002,5 hPa 0,0 l/m 0,00 h 0,00 h 0 W/m 5,3 km/h (1 Bft) 97,08 %
13.11.2019 20:00 6,0 C 5,2 C 4,7 C 93 % 1002,3 hPa 0,0 l/m 0,00 h 0,00 h 0 W/m 9,0 km/h (2 Bft) 97,37 %
13.11.2019 21:00 5,5 C 4,4 C 4,4 C 92 % 1002,2 hPa 0,0 l/m 0,00 h 0,00 h 0 W/m 16,2 km/h (3 Bft) 95,81 %
13.11.2019 22:00 5,2 C 4,4 C 3,9 C 93 % 1002,0 hPa 0,0 l/m 0,00 h 0,00 h 0 W/m 14,4 km/h (3 Bft) 96,72 %
13.11.2019 23:00 5,1 C 4,4 C 4,0 C 93 % 1001,6 hPa 0,0 l/m 0,00 h 0,03 h 0 W/m 14,1 km/h (3 Bft) 97,86 %
14.11.2019 00:00 5,2 C 4,4 C 4,0 C 93 % 1001,4 hPa 0,0 l/m 0,00 h 0,00 h 0 W/m 15,5 km/h (3 Bft) 97,23 %
14.11.2019 01:00 4,9 C 4,1 C 3,7 C 93 % 1001,0 hPa 0,0 l/m 0,00 h 0,00 h 0 W/m 16,7 km/h (3 Bft) 96,30 %
14.11.2019 02:00 4,7 C 3,9 C 3,3 C 93 % 1001,1 hPa 0,0 l/m 0,00 h 0,00 h 0 W/m 16,0 km/h (3 Bft) 97,87 %
14.11.2019 03:00 4,6 C 3,9 C 3,3 C 94 % 1000,6 hPa 0,0 l/m 0,00 h 0,00 h 0 W/m 17,5 km/h (3 Bft) 96,31 %
14.11.2019 04:00 4,4 C 3,5 C 3,0 C 94 % 1000,6 hPa 0,0 l/m 0,00 h 0,00 h 0 W/m 17,1 km/h (3 Bft) 98,01 %
14.11.2019 05:00 4,4 C 3,9 C 3,4 C 94 % 1000,7 hPa 0,0 l/m 0,00 h 0,00 h 0 W/m 20,2 km/h (4 Bft) 95,37 %
14.11.2019 06:00 4,9 C 4,4 C 3,9 C 94 % 1000,9 hPa 0,0 l/m 0,00 h 0,00 h 0 W/m 22,4 km/h (4 Bft) 97,63 %
14.11.2019 07:00 5,1 C 4,4 C 3,9 C 93 % 1001,3 hPa 0,0 l/m 0,00 h 0,00 h 5 W/m 20,1 km/h (4 Bft) 96,45 %
14.11.2019 08:00 5,2 C 4,9 C 4,2 C 91 % 1001,8 hPa 0,0 l/m 0,00 h 0,00 h 22 W/m 25,6 km/h (4 Bft) 96,72 %
14.11.2019 09:00 5,8 C 5,6 C 4,7 C 89 % 1002,0 hPa 0,0 l/m 0,00 h 0,00 h 58 W/m 25,1 km/h (4 Bft) 98,15 %
14.11.2019 10:00 6,3 C 6,2 C 5,5 C 88 % 1002,1 hPa 0,0 l/m 0,00 h 0,00 h 76 W/m 23,9 km/h (4 Bft) 97,30 %
14.11.2019 11:00 6,8 C 7,1 C 6,1 C 86 % 1002,4 hPa 0,0 l/m 0,23 h 0,00 h 133 W/m 22,4 km/h (4 Bft) 96,79 %
14.11.2019 12:00 7,8 C 8,8 C 7,1 C 81 % 1002,5 hPa 0,0 l/m 0,47 h 0,00 h 186 W/m 24,0 km/h (4 Bft) 98,89 %
14.11.2019 13:00 7,8 C 7,3 C 6,7 C 80 % 1002,4 hPa 0,0 l/m 0,00 h 0,00 h 63 W/m 22,5 km/h (4 Bft) 96,86 %
14.11.2019 14:00 8,1 C 8,4 C 7,2 C 78 % 1002,0 hPa 0,0 l/m 0,23 h 0,00 h 118 W/m 20,7 km/h (4 Bft) 97,37 %
14.11.2019 15:00 8,2 C 7,4 C 6,8 C 77 % 1002,1 hPa 0,0 l/m 0,00 h 0,00 h 45 W/m 14,4 km/h (3 Bft) 99,15 %
14.11.2019 16:00 7,8 C 6,4 C 5,7 C 79 % 1003,1 hPa 0,0 l/m 0,00 h 0,00 h 14 W/m 1,8 km/h (1 Bft) 95,94 %
14.11.2019 17:00 7,0 C 5,5 C 4,6 C 83 % 1003,1 hPa 0,0 l/m 0,00 h 0,00 h 0 W/m 0,5 km/h (0 Bft) 98,51 %
14.11.2019 18:00 6,2 C 4,7 C 4,0 C 85 % 1003,4 hPa 0,0 l/m 0,00 h 0,00 h 0 W/m 0,8 km/h (0 Bft) 95,39 %
14.11.2019 19:00 5,6 C 4,4 C 3,9 C 87 % 1003,7 hPa 0,0 l/m 0,00 h 0,00 h 0 W/m 0,3 km/h (0 Bft) 97,09 %
14.11.2019 20:00 5,2 C 4,2 C 3,4 C 88 % 1003,9 hPa 0,0 l/m 0,00 h 0,00 h 0 W/m 1,7 km/h (1 Bft) 99,29 %
14.11.2019 21:00 4,6 C 3,1 C 2,5 C 89 % 1003,7 hPa 0,0 l/m 0,00 h 0,00 h 0 W/m 1,6 km/h (1 Bft) 96,44 %
14.11.2019 22:00 3,7 C 2,3 C 1,7 C 89 % 1003,3 hPa 0,0 l/m 0,00 h 0,00 h 0 W/m 1,9 km/h (1 Bft) 94,30 %
14.11.2019 23:00 3,2 C 2,1 C 1,3 C 90 % 1002,9 hPa 0,0 l/m 0,00 h 0,00 h 0 W/m 2,2 km/h (1 Bft) 98,08 %
15.11.2019 00:00 2,9 C 2,2 C 1,6 C 92 % 1002,7 hPa 0,0 l/m 0,00 h 0,00 h 0 W/m 2,6 km/h (1 Bft) 95,55 %
15.11.2019 01:00 3,0 C 1,8 C 1,4 C 93 % 1002,4 hPa 0,0 l/m 0,00 h 0,00 h 0 W/m 2,5 km/h (1 Bft) 96,44 %
15.11.2019 02:00 2,5 C 1,4 C 1,0 C 93 % 1001,6 hPa 0,0 l/m 0,00 h 0,00 h 0 W/m 3,0 km/h (1 Bft) 97,08 %
15.11.2019 03:00 2,0 C 0,8 C 0,5 C 94 % 1001,1 hPa 0,0 l/m 0,00 h 0,00 h 0 W/m 4,3 km/h (1 Bft) 97,15 %
15.11.2019 04:00 1,8 C 0,9 C 0,6 C 95 % 1000,4 hPa 0,0 l/m 0,00 h 0,00 h 0 W/m 7,1 km/h (2 Bft) 97,62 %
15.11.2019 05:00 1,7 C 0,8 C 0,6 C 96 % 1000,0 hPa 0,0 l/m 0,00 h 0,00 h 0 W/m 4,9 km/h (1 Bft) 99,08 %
15.11.2019 06:00 1,9 C 1,5 C 1,0 C 96 % 999,4 hPa 0,0 l/m 0,00 h 0,00 h 0 W/m 7,2 km/h (2 Bft) 94,88 %
15.11.2019 07:00 2,2 C 1,7 C 1,1 C 96 % 999,1 hPa 0,0 l/m 0,00 h 0,00 h 0 W/m 6,2 km/h (2 Bft) 97,45 %
15.11.2019 08:00 2,3 C 1,9 C 1,5 C 96 % 999,5 hPa 0,0 l/m 0,00 h 0,00 h 20 W/m 7,2 km/h (2 Bft) 97,94 %
15.11.2019 09:00 2,8 C 2,9 C 2,3 C 95 % 999,4 hPa 0,0 l/m 0,00 h 0,00 h 52 W/m 10,2 km/h (2 Bft) 95,80 %
15.11.2019 10:00 3,8 C 4,9 C 3,6 C 94 % 1000,0 hPa 0,0 l/m 0,23 h 0,00 h 124 W/m 7,8 km/h (2 Bft) 98,86 %
15.11.2019 11:00 5,1 C 7,6 C 4,7 C 91 % 1000,3 hPa 0,0 l/m 0,77 h 0,00 h 219 W/m 8,8 km/h (2 Bft) 96,08 %
15.11.2019 12:00 5,7 C 5,5 C 4,8 C 88 % 1000,2 hPa 0,0 l/m 0,00 h 0,00 h 88 W/m 7,8 km/h (2 Bft) 96,91 %
15.11.2019 13:00 5,7 C 5,7 C 5,0 C 88 % 1000,7 hPa 0,0 l/m 0,00 h 0,00 h 65 W/m 6,2 km/h (2 Bft) 96,55 %
15.11.2019 14:00 6,2 C 6,4 C 5,6 C 86 % 1001,0 hPa 0,0 l/m 0,03 h 0,00 h 91 W/m 8,7 km/h (2 Bft) 97,51 %
15.11.2019 15:00 6,6 C 6,8 C 5,7 C 84 % 1001,2 hPa 0,0 l/m 0,83 h 0,00 h 95 W/m 11,9 km/h (2 Bft) 95,20 %
15.11.2019 16:00 6,7 C 5,9 C 5,4 C 83 % 1001,8 hPa 0,0 l/m 0,00 h 0,00 h 18 W/m 11,4 km/h (2 Bft) 97,86 %
15.11.2019 17:00 6,2 C 5,2 C 4,5 C 85 % 1002,3 hPa 0,0 l/m 0,00 h 0,00 h 0 W/m 9,0 km/h (2 Bft) 97,65 %
15.11.2019 18:00 5,4 C 3,2 C 2,5 C 85 % 1002,9 hPa 0,0 l/m 0,00 h 0,00 h 0 W/m 1,8 km/h (1 Bft) 96,35 %
15.11.2019 19:00 4,1 C 2,3 C 1,7 C 87 % 1003,6 hPa 0,0 l/m 0,00 h 0,00 h 0 W/m 0,3 km/h (0 Bft) 96,64 %
15.11.2019 20:00 3,6 C 2,8 C 1,8 C 89 % 1004,1 hPa 0,0 l/m 0,00 h 0,00 h 0 W/m 0,9 km/h (0 Bft) 97,51 %
15.11.2019 21:00 3,4 C 2,6 C 1,9 C 91 % 1004,7 hPa 0,0 l/m 0,00 h 0,00 h 0 W/m 1,6 km/h (1 Bft) 97,05 %
15.11.2019 22:00 3,7 C 3,7 C 3,0 C 93 % 1005,4 hPa 0,0 l/m 0,00 h 0,00 h 0 W/m 2,1 km/h (1 Bft) 94,72 %
15.11.2019 23:00 4,2 C 3,9 C 3,1 C 94 % 1005,5 hPa 0,0 l/m 0,00 h 0,00 h 0 W/m 2,5 km/h (1 Bft) 98,65 %
16.11.2019 00:00 4,2 C 3,1 C 2,5 C 93 % 1005,9 hPa 0,0 l/m 0,00 h 0,00 h 0 W/m 1,0 km/h (0 Bft) 96,57 %
16.11.2019 01:00 3,5 C 2,0 C 1,7 C 93 % 1005,8 hPa 0,0 l/m 0,00 h 0,00 h 0 W/m 0,0 km/h (0 Bft) 98,22 %
16.11.2019 02:00 2,9 C 1,7 C 1,1 C 93 % 1005,8 hPa 0,0 l/m 0,00 h 0,00 h 0 W/m 0,0 km/h (0 Bft) 95,94 %
16.11.2019 03:00 2,6 C 1,5 C 1,1 C 93 % 1005,8 hPa 0,0 l/m 0,00 h 0,00 h 0 W/m 0,2 km/h (0 Bft) 97,63 %
16.11.2019 04:00 2,3 C 1,1 C 0,8 C 94 % 1005,8 hPa 0,0 l/m 0,00 h 0,00 h 0 W/m 0,0 km/h (0 Bft) 97,08 %
16.11.2019 05:00 2,0 C 0,9 C 0,6 C 94 % 1006,1 hPa 0,0 l/m 0,00 h 0,00 h 0 W/m 0,3 km/h (0 Bft) 98,57 %
16.11.2019 06:00 1,7 C 0,4 C -0,1 C 94 % 1006,3 hPa 0,0 l/m 0,00 h 0,00 h 0 W/m 0,9 km/h (0 Bft) 95,04 %
16.11.2019 07:00 1,3 C -0,0 C -0,5 C 95 % 1007,2 hPa 0,0 l/m 0,00 h 0,00 h 5 W/m 0,2 km/h (0 Bft) 95,05 %
16.11.2019 08:00 1,0 C 0,6 C 0,1 C 95 % 1008,0 hPa 0,0 l/m 0,00 h 0,00 h 21 W/m 2,3 km/h (1 Bft) 99,29 %
16.11.2019 09:00 2,1 C 2,8 C 2,0 C 97 % 1008,4 hPa 0,0 l/m 0,00 h 0,00 h 68 W/m 4,7 km/h (1 Bft) 96,58 %
16.11.2019 10:00 3,2 C 5,2 C 3,6 C 98 % 1008,7 hPa 0,0 l/m 0,90 h 0,00 h 161 W/m 9,2 km/h (2 Bft) 98,01 %
16.11.2019 11:00 5,3 C 10,0 C 5,8 C 96 % 1008,8 hPa 0,0 l/m 1,00 h 0,00 h 292 W/m 11,5 km/h (2 Bft) 98,64 %
16.11.2019 12:00 8,6 C 13,1 C 7,8 C 80 % 1008,9 hPa 0,0 l/m 1,00 h 0,00 h 370 W/m 14,9 km/h (3 Bft) 97,50 %
16.11.2019 13:00 9,4 C 10,4 C 7,8 C 73 % 1009,1 hPa 0,0 l/m 0,67 h 0,00 h 206 W/m 18,8 km/h (3 Bft) 95,73 %
16.11.2019 14:00 9,0 C 10,2 C 7,8 C 74 % 1008,9 hPa 0,0 l/m 1,00 h 0,00 h 205 W/m 15,6 km/h (3 Bft) 97,65 %
16.11.2019 15:00 8,8 C 8,2 C 7,2 C 75 % 1009,1 hPa 0,0 l/m 0,57 h 0,00 h 77 W/m 14,5 km/h (3 Bft) 98,00 %
16.11.2019 16:00 7,9 C 6,5 C 5,5 C 77 % 1009,8 hPa 0,0 l/m 0,13 h 0,00 h 19 W/m 7,3 km/h (2 Bft) 97,15 %
16.11.2019 17:00 6,1 C 3,1 C 2,2 C 81 % 1010,0 hPa 0,0 l/m 0,00 h 0,00 h 0 W/m 0,7 km/h (0 Bft) 97,65 %
16.11.2019 18:00 4,6 C 3,6 C 2,7 C 87 % 1010,6 hPa 0,0 l/m 0,00 h 0,00 h 0 W/m 6,6 km/h (2 Bft) 96,48 %
16.11.2019 19:00 4,4 C 3,6 C 3,1 C 88 % 1011,4 hPa 0,0 l/m 0,00 h 0,00 h 0 W/m 8,6 km/h (2 Bft) 94,88 %
16.11.2019 20:00 4,0 C 2,4 C 1,4 C 88 % 1012,0 hPa 0,0 l/m 0,00 h 0,00 h 0 W/m 2,8 km/h (1 Bft) 96,66 %
16.11.2019 21:00 2,7 C 0,6 C -0,3 C 87 % 1012,3 hPa 0,0 l/m 0,00 h 0,00 h 0 W/m 0,9 km/h (0 Bft) 98,67 %
16.11.2019 22:00 2,0 C 1,2 C 0,3 C 91 % 1012,1 hPa 0,0 l/m 0,00 h 0,00 h 0 W/m 3,8 km/h (1 Bft) 96,89 %
16.11.2019 23:00 1,9 C 1,0 C 0,6 C 93 % 1012,2 hPa 0,0 l/m 0,00 h 0,00 h 0 W/m 7,0 km/h (2 Bft) 93,99 %
17.11.2019 00:00 2,1 C 1,1 C 1,0 C 94 % 1012,8 hPa 0,0 l/m 0,00 h 0,00 h 0 W/m 14,5 km/h (3 Bft) 99,15 %
17.11.2019 01:00 1,9 C 1,1 C 0,6 C 95 % 1012,7 hPa 0,0 l/m 0,00 h 0,00 h 0 W/m 14,2 km/h (3 Bft) 97,44 %
17.11.2019 02:00 1,8 C 1,1 C 0,6 C 96 % 1012,9 hPa 0,0 l/m 0,00 h 0,00 h 0 W/m 13,8 km/h (3 Bft) 97,28 %
17.11.2019 03:00 1,7 C 0,8 C 0,4 C 96 % 1012,5 hPa 0,0 l/m 0,00 h 0,00 h 0 W/m 10,0 km/h (2 Bft) 97,35 %
17.11.2019 04:00 1,3 C 0,6 C 0,0 C 97 % 1012,2 hPa 0,0 l/m 0,00 h 0,00 h 0 W/m 9,8 km/h (2 Bft) 94,41 %
17.11.2019 05:00 1,1 C -0,1 C -0,4 C 97 % 1012,2 hPa 0,0 l/m 0,00 h 0,00 h 0 W/m 3,5 km/h (1 Bft) 98,86 %
17.11.2019 06:00 0,6 C -0,1 C -0,7 C 97 % 1012,7 hPa 0,0 l/m 0,00 h 0,00 h 0 W/m 2,4 km/h (1 Bft) 98,35 %
17.11.2019 07:00 0,5 C -0,7 C -1,1 C 97 % 1012,8 hPa 0,0 l/m 0,00 h 0,00 h 0 W/m 1,8 km/h (1 Bft) 94,94 %
17.11.2019 08:00 -0,1 C -1,1 C -1,4 C 97 % 1012,7 hPa 0,0 l/m 0,00 h 0,00 h 17 W/m 0,0 km/h (0 Bft) 97,58 %
17.11.2019 09:00 0,1 C 0,8 C 0,3 C 97 % 1012,7 hPa 0,2 l/m 0,00 h 0,00 h 55 W/m 0,0 km/h (0 Bft) 97,72 %
17.11.2019 10:00 1,4 C 2,6 C 1,8 C 98 % 1012,6 hPa 0,0 l/m 0,00 h 0,00 h 106 W/m 0,0 km/h (0 Bft) 97,01 %
17.11.2019 11:00 2,9 C 5,3 C 3,1 C 98 % 1012,0 hPa 0,0 l/m 0,60 h 0,00 h 174 W/m 0,3 km/h (0 Bft) 97,86 %
17.11.2019 12:00 4,8 C 7,3 C 5,1 C 99 % 1011,3 hPa 0,0 l/m 0,50 h 0,00 h 172 W/m 0,6 km/h (0 Bft) 95,58 %
17.11.2019 13:00 6,0 C 6,5 C 5,5 C 96 % 1010,9 hPa 0,0 l/m 0,00 h 0,00 h 94 W/m 1,5 km/h (1 Bft) 97,94 %
17.11.2019 14:00 6,0 C 5,9 C 5,0 C 91 % 1010,8 hPa 0,0 l/m 0,00 h 0,00 h 64 W/m 1,2 km/h (1 Bft) 97,93 %
17.11.2019 15:00 5,7 C 5,0 C 4,5 C 90 % 1010,0 hPa 0,0 l/m 0,00 h 0,00 h 38 W/m 4,2 km/h (1 Bft) 96,87 %
17.11.2019 16:00 5,1 C 4,2 C 3,9 C 90 % 1009,7 hPa 0,0 l/m 0,00 h 0,00 h 12 W/m 3,2 km/h (1 Bft) 97,58 %
17.11.2019 17:00 4,8 C 3,9 C 3,9 C 91 % 1009,6 hPa 0,0 l/m 0,00 h 0,00 h 0 W/m 6,2 km/h (2 Bft) 97,36 %
17.11.2019 18:00 4,7 C 3,9 C 3,4 C 92 % 1009,2 hPa 0,0 l/m 0,00 h 0,37 h 0 W/m 4,4 km/h (1 Bft) 97,57 %
17.11.2019 19:00 4,5 C 3,1 C 2,8 C 94 % 1009,0 hPa 2,0 l/m 0,00 h 1,00 h 0 W/m 2,8 km/h (1 Bft) 96,43 %
17.11.2019 20:00 4,1 C 2,8 C 2,8 C 96 % 1008,6 hPa 2,0 l/m 0,00 h 1,00 h 0 W/m 7,7 km/h (2 Bft) 95,94 %
17.11.2019 21:00 3,8 C 2,8 C 2,8 C 97 % 1008,5 hPa 3,2 l/m 0,00 h 1,00 h 0 W/m 7,9 km/h (2 Bft) 97,41 %
17.11.2019 22:00 3,8 C 2,8 C 2,8 C 98 % 1007,5 hPa 1,6 l/m 0,00 h 1,00 h 0 W/m 9,7 km/h (2 Bft) 96,88 %
17.11.2019 23:00 3,8 C 2,8 C 2,8 C 98 % 1007,1 hPa 0,6 l/m 0,00 h 0,63 h 0 W/m 12,1 km/h (2 Bft) 91,95 %
Min-Datum _ 17.11.19 17.11.19 17.11.19 16.11.19 15.11.19 - - - - 11.11.19 15.11.19
_ Min-Zeit 08:36 07:48 05:54 13:22 07:40 - - - - 23:16 00:02
Minimum _ -0,2 C -1,7 C -1,7 C 72 % 998,9 hPa - - - - 0,0 km/h (0 Bft) 15,38 %
Max-Datum _ 16.11.19 16.11.19 16.11.19 11.11.19 11.11.19 17.11.19 11.11.19 11.11.19 16.11.19 11.11.19 11.11.19
_ Max-Zeit 13:10 12:36 12:34 00:52 00:48 21:10 12:08 18:33 12:00 10:54 00:00
Maximum _ 9,9 C 14,4 C 8,3 C 99 % 1015,2 hPa 3,2 l/m 0,07 h 0,08 h 423 W/m 48,3 km/h
O-SO (6 Bft)
100,00 %
Durchschnitt _ 4,5 C 4,0 C 3,3 C 92 % 1004,8 hPa #16,4 l/m #10:20 h #12:06 h 82 W/m 11,9 km/h (2 Bft) 97,03 %
© 2019 W. Hausmann